createdAt,value
2022-12-12T00:00:29.103Z,98751.53
2022-12-12T00:02:57.025Z,98752.59
2022-12-12T00:05:23.470Z,98751.28
2022-12-12T00:07:50.132Z,98753.94
2022-12-12T00:10:16.632Z,98750.00
2022-12-12T00:12:43.066Z,98748.25
2022-12-12T00:15:11.538Z,98749.03
2022-12-12T00:17:38.216Z,98753.84
2022-12-12T00:20:05.506Z,98749.00
2022-12-12T00:22:32.096Z,98748.25
2022-12-12T00:24:58.565Z,98744.72
2022-12-12T00:27:25.063Z,98751.81
2022-12-12T00:29:53.109Z,98754.59
2022-12-12T00:32:19.559Z,98753.19
2022-12-12T00:34:46.307Z,98749.00
2022-12-12T00:37:12.747Z,98746.69
2022-12-12T00:39:39.578Z,98754.53
2022-12-12T00:42:05.998Z,98749.50
2022-12-12T00:44:32.404Z,98751.75
2022-12-12T00:46:58.838Z,98755.72
2022-12-12T00:49:25.193Z,98755.63
2022-12-12T00:51:51.634Z,98752.06
2022-12-12T00:54:18.066Z,98752.31
2022-12-12T00:56:44.477Z,98756.75
2022-12-12T00:59:10.935Z,98755.84
2022-12-12T01:01:37.688Z,98763.06
2022-12-12T01:04:04.846Z,98755.38
2022-12-12T01:06:31.585Z,98763.44
2022-12-12T01:08:59.234Z,98758.75
2022-12-12T01:11:26.255Z,98767.22
2022-12-12T01:13:53.441Z,98771.25
2022-12-12T01:16:20.504Z,98771.25
2022-12-12T01:18:47.104Z,98773.00
2022-12-12T01:21:15.542Z,98778.81
2022-12-12T01:23:42.470Z,98780.38
2022-12-12T01:26:12.006Z,98785.69
2022-12-12T01:28:38.696Z,98779.56
2022-12-12T01:31:05.735Z,98784.75
2022-12-12T01:33:32.291Z,98789.94
2022-12-12T01:35:58.695Z,98784.25
2022-12-12T01:38:25.386Z,98779.84
2022-12-12T01:40:52.674Z,98782.59
2022-12-12T01:43:20.360Z,98786.81
2022-12-12T01:45:55.795Z,98785.88
2022-12-12T01:48:25.427Z,98796.25
2022-12-12T01:50:52.074Z,98781.50
2022-12-12T01:53:19.465Z,98790.06
2022-12-12T01:55:48.364Z,98794.47
2022-12-12T01:58:15.811Z,98798.63
2022-12-12T02:00:42.779Z,98788.19
2022-12-12T02:03:09.698Z,98795.78
2022-12-12T02:06:04.746Z,98794.50
2022-12-12T02:08:31.231Z,98795.78
2022-12-12T02:10:57.724Z,98790.25
2022-12-12T02:13:29.731Z,98789.31
2022-12-12T02:16:38.684Z,98788.06
2022-12-12T02:19:14.060Z,98792.75
2022-12-12T02:21:46.453Z,98790.81
2022-12-12T02:24:34.217Z,98792.75
2022-12-12T02:27:20.782Z,98793.72
2022-12-12T02:29:59.158Z,98797.78
2022-12-12T02:32:49.947Z,98804.97
2022-12-12T02:35:41.129Z,98801.44
2022-12-12T02:38:19.630Z,98807.09
2022-12-12T02:40:56.903Z,98797.78
2022-12-12T02:43:23.188Z,98798.41
2022-12-12T02:45:52.546Z,98799.75
2022-12-12T02:48:40.893Z,98800.53
2022-12-12T02:51:08.820Z,98794.19
2022-12-12T02:53:35.229Z,98804.94
2022-12-12T02:56:07.156Z,98797.75
2022-12-12T02:58:36.276Z,98800.88
2022-12-12T03:01:19.984Z,98807.84
2022-12-12T03:04:21.286Z,98802.16
2022-12-12T03:07:09.254Z,98801.53
2022-12-12T03:10:20.139Z,98795.22
2022-12-12T03:13:03.948Z,98796.72
2022-12-12T03:15:34.075Z,98797.78
2022-12-12T03:18:09.825Z,98801.06
2022-12-12T03:20:47.553Z,98789.47
2022-12-12T03:23:15.912Z,98792.84
2022-12-12T03:25:49.585Z,98793.22
2022-12-12T03:28:24.654Z,98792.97
2022-12-12T03:30:55.200Z,98785.63
2022-12-12T03:33:32.580Z,98787.69
2022-12-12T03:36:02.443Z,98790.97
2022-12-12T03:38:33.020Z,98794.47
2022-12-12T03:41:01.902Z,98791.44
2022-12-12T03:43:29.800Z,98786.19
2022-12-12T03:46:08.579Z,98784.31
2022-12-12T03:48:39.110Z,98786.16
2022-12-12T03:51:09.667Z,98785.94
2022-12-12T03:53:48.101Z,98788.34
2022-12-12T03:56:22.078Z,98791.63
2022-12-12T03:58:57.070Z,98793.28
2022-12-12T04:01:37.582Z,98790.25
2022-12-12T04:04:28.255Z,98805.38
2022-12-12T04:07:13.407Z,98804.00
2022-12-12T04:09:58.592Z,98808.19
2022-12-12T04:12:53.686Z,98807.66
2022-12-12T04:15:35.304Z,98808.97
2022-12-12T04:18:20.126Z,98807.44
2022-12-12T04:21:23.963Z,98811.75
2022-12-12T04:23:56.086Z,98813.25
2022-12-12T04:26:40.784Z,98820.94
2022-12-12T04:29:19.417Z,98819.31
2022-12-12T04:31:53.873Z,98823.88
2022-12-12T04:34:31.992Z,98826.63
2022-12-12T04:36:58.418Z,98819.16
2022-12-12T04:39:26.661Z,98821.06
2022-12-12T04:41:54.089Z,98824.88
2022-12-12T04:44:22.041Z,98832.69
2022-12-12T04:46:51.730Z,98826.50
2022-12-12T04:49:20.530Z,98831.41
2022-12-12T04:51:50.138Z,98837.25
2022-12-12T04:54:32.349Z,98828.91
2022-12-12T04:57:01.326Z,98842.53
2022-12-12T04:59:28.295Z,98833.69
2022-12-12T05:02:17.975Z,98829.44
2022-12-12T05:04:44.286Z,98834.19
2022-12-12T05:07:15.730Z,98830.44
2022-12-12T05:09:43.101Z,98825.13
2022-12-12T05:12:09.573Z,98836.22
2022-12-12T05:14:38.824Z,98826.78
2022-12-12T05:17:10.576Z,98833.81
2022-12-12T05:19:37.002Z,98829.38
2022-12-12T05:22:03.447Z,98839.22
2022-12-12T05:24:31.230Z,98840.72
2022-12-12T05:26:59.043Z,98839.94
2022-12-12T05:29:25.591Z,98840.72
2022-12-12T05:31:52.051Z,98844.47
2022-12-12T05:34:18.428Z,98846.72
2022-12-12T05:36:44.854Z,98844.97
2022-12-12T05:39:11.260Z,98847.72
2022-12-12T05:41:37.653Z,98845.56
2022-12-12T05:44:04.039Z,98845.16
2022-12-12T05:46:30.505Z,98853.34
2022-12-12T05:48:56.978Z,98856.09
2022-12-12T05:51:23.366Z,98854.59
2022-12-12T05:53:49.861Z,98863.13
2022-12-12T05:56:16.291Z,98851.41
2022-12-12T05:58:43.007Z,98866.53
2022-12-12T06:01:09.794Z,98866.63
2022-12-12T06:03:36.311Z,98862.94
2022-12-12T06:06:03.182Z,98868.44
2022-12-12T06:08:29.798Z,98870.44
2022-12-12T06:10:56.292Z,98876.22
2022-12-12T06:13:22.832Z,98873.44
2022-12-12T06:15:49.389Z,98872.41
2022-12-12T06:18:15.907Z,98876.56
2022-12-12T06:20:42.935Z,98874.19
2022-12-12T06:23:09.377Z,98873.94
2022-12-12T06:25:35.779Z,98876.66
2022-12-12T06:28:02.254Z,98876.94
2022-12-12T06:30:28.703Z,98879.84
2022-12-12T06:32:55.103Z,98883.91
2022-12-12T06:35:21.501Z,98885.22
2022-12-12T06:37:48.514Z,98881.75
2022-12-12T06:40:15.105Z,98884.47
2022-12-12T06:42:46.406Z,98881.22
2022-12-12T06:45:15.310Z,98882.16
2022-12-12T06:47:41.975Z,98877.88
2022-12-12T06:50:08.809Z,98890.13
2022-12-12T06:52:35.202Z,98883.94
2022-12-12T06:55:01.642Z,98883.13
2022-12-12T06:57:28.749Z,98892.31
2022-12-12T06:59:55.243Z,98878.69
2022-12-12T07:02:27.762Z,98888.22
2022-12-12T07:04:56.460Z,98890.25
2022-12-12T07:07:22.882Z,98896.03
2022-12-12T07:09:49.417Z,98887.31
2022-12-12T07:12:15.835Z,98901.50
2022-12-12T07:14:42.207Z,98907.84
2022-12-12T07:17:11.570Z,98898.81
2022-12-12T07:19:37.981Z,98904.59
2022-12-12T07:22:09.654Z,98906.81
2022-12-12T07:24:37.057Z,98908.94
2022-12-12T07:27:03.738Z,98908.03
2022-12-12T07:29:30.125Z,98905.25
2022-12-12T07:31:56.502Z,98902.47
2022-12-12T07:34:22.927Z,98899.19
2022-12-12T07:36:49.306Z,98908.66
2022-12-12T07:39:20.744Z,98907.78
2022-12-12T07:41:47.711Z,98913.34
2022-12-12T07:44:15.724Z,98906.81
2022-12-12T07:46:42.215Z,98916.88
2022-12-12T07:49:08.663Z,98918.66
2022-12-12T07:51:35.328Z,98920.69
2022-12-12T07:54:01.735Z,98924.72
2022-12-12T07:56:28.617Z,98938.56
2022-12-12T07:58:55.469Z,98932.47
2022-12-12T08:01:24.989Z,98936.56
2022-12-12T08:03:51.788Z,98934.34
2022-12-12T08:06:19.305Z,98935.25
2022-12-12T08:08:46.271Z,98937.28
2022-12-12T08:11:14.624Z,98942.94
2022-12-12T08:13:41.534Z,98954.00
2022-12-12T08:16:13.391Z,98948.97
2022-12-12T08:18:39.882Z,98951.66
2022-12-12T08:21:10.931Z,98946.81
2022-12-12T08:23:38.095Z,98953.34
2022-12-12T08:26:06.295Z,98948.59
2022-12-12T08:28:33.083Z,98952.00
2022-12-12T08:30:59.547Z,98958.03
2022-12-12T08:33:25.977Z,98959.19
2022-12-12T08:35:52.457Z,98966.81
2022-12-12T08:38:18.871Z,98963.06
2022-12-12T08:40:45.334Z,98966.59
2022-12-12T08:43:12.068Z,98967.75
2022-12-12T08:45:38.589Z,98966.41
2022-12-12T08:48:06.643Z,98975.38
2022-12-12T08:50:33.835Z,98981.28
2022-12-12T08:53:00.218Z,98973.22
2022-12-12T08:55:26.619Z,98981.97
2022-12-12T08:57:53.014Z,98979.34
2022-12-12T09:00:19.405Z,98977.16
2022-12-12T09:02:46.019Z,98970.69
2022-12-12T09:05:12.919Z,98977.16
2022-12-12T09:07:39.559Z,98975.72
2022-12-12T09:10:06.465Z,98972.63
2022-12-12T09:12:35.669Z,98972.63
2022-12-12T09:15:07.270Z,98975.91
2022-12-12T09:17:33.721Z,98976.72
2022-12-12T09:20:00.140Z,98985.22
2022-12-12T09:22:26.560Z,98986.34
2022-12-12T09:24:52.965Z,98983.66
2022-12-12T09:27:19.345Z,98988.59
2022-12-12T09:29:45.894Z,98991.03
2022-12-12T09:32:12.267Z,98986.88
2022-12-12T09:34:39.039Z,98986.00
2022-12-12T09:37:05.572Z,98973.53
2022-12-12T09:39:32.042Z,98973.66
2022-12-12T09:41:58.611Z,98975.81
2022-12-12T09:44:25.496Z,98982.59
2022-12-12T09:47:02.311Z,98987.56
2022-12-12T09:50:13.657Z,98990.88
2022-12-12T09:52:40.822Z,98983.50
2022-12-12T09:55:28.755Z,98980.66
2022-12-12T09:58:07.998Z,98985.56
2022-12-12T10:00:39.437Z,98988.50
2022-12-12T10:04:00.153Z,98985.97
2022-12-12T10:06:39.662Z,98991.38
2022-12-12T10:09:12.548Z,98986.75
2022-12-12T10:11:54.940Z,98986.50
2022-12-12T10:15:00.986Z,98987.47
2022-12-12T10:17:27.446Z,98984.22
2022-12-12T10:20:04.206Z,98983.22
2022-12-12T10:23:05.823Z,98976.00
2022-12-12T10:25:39.894Z,98972.34
2022-12-12T10:28:11.194Z,98974.50
2022-12-12T10:30:46.456Z,98969.16
2022-12-12T10:33:42.183Z,98967.41
2022-12-12T10:36:11.607Z,98971.81
2022-12-12T10:39:00.883Z,98974.84
2022-12-12T10:41:40.294Z,98965.00
2022-12-12T10:44:21.832Z,98972.56
2022-12-12T10:46:50.994Z,98972.09
2022-12-12T10:49:19.649Z,98969.72
2022-12-12T10:51:47.702Z,98970.88
2022-12-12T10:54:26.831Z,98964.53
2022-12-12T10:57:18.056Z,98974.16
2022-12-12T10:59:47.457Z,98968.31
2022-12-12T11:02:30.662Z,98956.19
2022-12-12T11:05:06.500Z,98967.31
2022-12-12T11:07:45.118Z,98963.38
2022-12-12T11:10:23.619Z,98953.19
2022-12-12T11:12:57.377Z,98957.94
2022-12-12T11:15:29.419Z,98952.38
2022-12-12T11:18:05.755Z,98939.31
2022-12-12T11:20:32.674Z,98948.66
2022-12-12T11:22:59.083Z,98947.50
2022-12-12T11:25:30.982Z,98940.97
2022-12-12T11:28:04.846Z,98936.78
2022-12-12T11:30:32.858Z,98939.81
2022-12-12T11:32:59.372Z,98932.50
2022-12-12T11:35:32.023Z,98932.50
2022-12-12T11:38:04.176Z,98932.25
2022-12-12T11:40:34.160Z,98936.78
2022-12-12T11:43:22.544Z,98933.28
2022-12-12T11:46:20.886Z,98939.19
2022-12-12T11:48:47.370Z,98933.09
2022-12-12T11:51:15.543Z,98930.50
2022-12-12T11:53:44.650Z,98926.19
2022-12-12T11:56:20.047Z,98917.75
2022-12-12T11:59:11.424Z,98915.59
2022-12-12T12:02:02.410Z,98919.63
2022-12-12T12:04:53.107Z,98912.34
2022-12-12T12:07:57.335Z,98915.88
2022-12-12T12:10:38.781Z,98911.09
2022-12-12T12:13:26.738Z,98917.03
2022-12-12T12:16:25.534Z,98911.13
2022-12-12T12:19:19.500Z,98906.06
2022-12-12T12:22:07.281Z,98908.09
2022-12-12T12:24:33.657Z,98900.28
2022-12-12T12:27:18.964Z,98896.50
2022-12-12T12:30:21.012Z,98900.03
2022-12-12T12:32:56.185Z,98895.50
2022-12-12T12:35:30.977Z,98895.50
2022-12-12T12:38:09.820Z,98883.38
2022-12-12T12:41:01.123Z,98878.84
2022-12-12T12:43:55.971Z,98884.13
2022-12-12T12:46:31.385Z,98874.69
2022-12-12T12:49:02.991Z,98879.38
2022-12-12T12:51:34.359Z,98878.97
2022-12-12T12:54:07.554Z,98869.13
2022-12-12T12:56:43.882Z,98861.44
2022-12-12T12:59:16.076Z,98862.06
2022-12-12T13:01:45.514Z,98861.72
2022-12-12T13:04:16.952Z,98870.03
2022-12-12T13:06:52.186Z,98868.25
2022-12-12T13:09:27.372Z,98867.25
2022-12-12T13:11:59.523Z,98860.66
2022-12-12T13:14:38.349Z,98858.38
2022-12-12T13:17:06.872Z,98850.06
2022-12-12T13:19:37.987Z,98850.81
2022-12-12T13:22:11.518Z,98842.75
2022-12-12T13:24:43.449Z,98839.47
2022-12-12T13:27:22.736Z,98830.91
2022-12-12T13:29:53.775Z,98830.28
2022-12-12T13:32:45.077Z,98821.56
2022-12-12T13:35:16.036Z,98831.16
2022-12-12T13:37:48.962Z,98837.69
2022-12-12T13:40:42.332Z,98840.47
2022-12-12T13:43:39.296Z,98843.63
2022-12-12T13:46:36.155Z,98846.31
2022-12-12T13:49:05.684Z,98845.50
2022-12-12T13:51:41.251Z,98843.78
2022-12-12T13:54:12.777Z,98846.31
2022-12-12T13:56:47.453Z,98838.72
2022-12-12T13:59:23.018Z,98836.44
2022-12-12T14:01:51.133Z,98842.88
2022-12-12T14:04:32.897Z,98831.25
2022-12-12T14:07:01.751Z,98821.56
2022-12-12T14:09:47.279Z,98818.13
2022-12-12T14:12:19.593Z,98809.19
2022-12-12T14:15:19.438Z,98801.88
2022-12-12T14:17:53.683Z,98801.34
2022-12-12T14:20:30.302Z,98801.72
2022-12-12T14:22:59.698Z,98800.22
2022-12-12T14:25:33.253Z,98798.84
2022-12-12T14:28:03.000Z,98791.28
2022-12-12T14:30:45.275Z,98791.91
2022-12-12T14:33:17.700Z,98791.53
2022-12-12T14:35:55.707Z,98795.84
2022-12-12T14:38:33.091Z,98797.72
2022-12-12T14:41:02.979Z,98811.31
2022-12-12T14:43:30.684Z,98817.75
2022-12-12T14:45:58.927Z,98822.81
2022-12-12T14:48:34.315Z,98823.69
2022-12-12T14:51:11.728Z,98831.91
2022-12-12T14:53:46.468Z,98831.41
2022-12-12T14:56:28.681Z,98837.19
2022-12-12T14:58:55.026Z,98832.66
2022-12-12T15:01:38.580Z,98841.00
2022-12-12T15:04:08.183Z,98829.00
2022-12-12T15:06:36.434Z,98833.81
2022-12-12T15:09:15.497Z,98823.09
2022-12-12T15:11:42.303Z,98823.88
2022-12-12T15:14:21.387Z,98829.41
2022-12-12T15:17:07.964Z,98832.69
2022-12-12T15:19:45.295Z,98825.75
2022-12-12T15:22:18.743Z,98832.44
2022-12-12T15:24:45.650Z,98827.41
2022-12-12T15:27:17.966Z,98826.03
2022-12-12T15:29:44.399Z,98827.41
2022-12-12T15:32:17.485Z,98828.06
2022-12-12T15:34:47.572Z,98822.88
2022-12-12T15:37:29.596Z,98817.97
2022-12-12T15:40:17.587Z,98812.78
2022-12-12T15:42:47.807Z,98818.56
2022-12-12T15:45:20.880Z,98815.41
2022-12-12T15:47:47.742Z,98823.38
2022-12-12T15:50:43.744Z,98828.66
2022-12-12T15:53:23.715Z,98829.94
2022-12-12T15:56:01.054Z,98830.28
2022-12-12T15:58:30.954Z,98830.44
2022-12-12T16:01:22.701Z,98830.91
2022-12-12T16:04:06.670Z,98827.41
2022-12-12T16:06:37.502Z,98833.19
2022-12-12T16:09:06.808Z,98837.72
2022-12-12T16:11:37.283Z,98831.78
2022-12-12T16:14:04.859Z,98832.94
2022-12-12T16:16:38.661Z,98838.19
2022-12-12T16:19:07.030Z,98849.75
2022-12-12T16:21:36.505Z,98848.53
2022-12-12T16:24:20.777Z,98851.41
2022-12-12T16:26:47.289Z,98851.78
2022-12-12T16:29:13.713Z,98849.25
2022-12-12T16:31:40.331Z,98856.81
2022-12-12T16:34:07.147Z,98852.25
2022-12-12T16:36:39.932Z,98856.56
2022-12-12T16:39:09.578Z,98862.06
2022-12-12T16:41:35.994Z,98861.81
2022-12-12T16:44:02.476Z,98853.59
2022-12-12T16:46:28.908Z,98857.75
2022-12-12T16:49:03.155Z,98855.63
2022-12-12T16:51:30.976Z,98850.72
2022-12-12T16:53:57.482Z,98848.56
2022-12-12T16:56:24.743Z,98843.53
2022-12-12T16:58:53.283Z,98843.91
2022-12-12T17:01:20.446Z,98843.91
2022-12-12T17:03:46.956Z,98849.66
2022-12-12T17:06:13.509Z,98841.59
2022-12-12T17:08:39.947Z,98847.28
2022-12-12T17:11:10.535Z,98844.59
2022-12-12T17:13:38.385Z,98844.09
2022-12-12T17:16:04.980Z,98845.94
2022-12-12T17:18:31.451Z,98843.91
2022-12-12T17:20:57.935Z,98844.78
2022-12-12T17:23:30.362Z,98842.50
2022-12-12T17:26:02.911Z,98850.50
2022-12-12T17:28:31.702Z,98839.72
2022-12-12T17:30:58.166Z,98839.84
2022-12-12T17:33:24.886Z,98841.88
2022-12-12T17:36:05.883Z,98841.13
2022-12-12T17:38:32.883Z,98840.13
2022-12-12T17:41:03.196Z,98830.28
2022-12-12T17:43:29.712Z,98830.34
2022-12-12T17:45:58.069Z,98819.91
2022-12-12T17:48:24.585Z,98820.75
2022-12-12T17:51:02.295Z,98815.72
2022-12-12T17:53:38.104Z,98822.00
2022-12-12T17:56:07.680Z,98826.75
2022-12-12T17:58:39.739Z,98827.50
2022-12-12T18:01:18.634Z,98832.06
2022-12-12T18:03:45.504Z,98836.34
2022-12-12T18:06:12.796Z,98835.78
2022-12-12T18:08:40.378Z,98836.25
2022-12-12T18:11:13.349Z,98838.50
2022-12-12T18:13:40.987Z,98839.88
2022-12-12T18:16:08.980Z,98833.00
2022-12-12T18:18:35.505Z,98842.28
2022-12-12T18:21:07.132Z,98841.13
2022-12-12T18:23:34.092Z,98842.53
2022-12-12T18:26:11.501Z,98840.06
2022-12-12T18:28:37.992Z,98837.56
2022-12-12T18:31:04.609Z,98836.28
2022-12-12T18:33:31.054Z,98836.41
2022-12-12T18:36:13.311Z,98834.72
2022-12-12T18:38:42.903Z,98838.31
2022-12-12T18:41:14.506Z,98831.72
2022-12-12T18:43:41.227Z,98835.69
2022-12-12T18:46:11.137Z,98837.31
2022-12-12T18:48:39.379Z,98825.63
2022-12-12T18:51:17.659Z,98825.25
2022-12-12T18:53:44.853Z,98830.16
2022-12-12T18:56:15.023Z,98823.97
2022-12-12T18:58:41.463Z,98826.22
2022-12-12T19:01:13.275Z,98827.56
2022-12-12T19:03:44.538Z,98827.03
2022-12-12T19:06:13.991Z,98832.06
2022-12-12T19:08:40.953Z,98835.09
2022-12-12T19:11:08.387Z,98831.72
2022-12-12T19:13:35.103Z,98830.28
2022-12-12T19:16:14.300Z,98820.53
2022-12-12T19:18:41.527Z,98818.44
2022-12-12T19:21:17.859Z,98820.59
2022-12-12T19:23:44.455Z,98813.81
2022-12-12T19:26:13.816Z,98827.72
2022-12-12T19:28:40.410Z,98823.28
2022-12-12T19:31:08.576Z,98823.84
2022-12-12T19:33:35.478Z,98812.78
2022-12-12T19:36:11.963Z,98815.75
2022-12-12T19:38:38.425Z,98812.78
2022-12-12T19:41:08.305Z,98801.97
2022-12-12T19:43:35.196Z,98812.91
2022-12-12T19:46:04.302Z,98817.03
2022-12-12T19:48:30.752Z,98815.56
2022-12-12T19:50:57.211Z,98820.59
2022-12-12T19:53:23.601Z,98822.97
2022-12-12T19:55:52.010Z,98830.38
2022-12-12T19:58:18.456Z,98834.50
2022-12-12T20:00:45.061Z,98837.53
2022-12-12T20:03:11.444Z,98832.50
2022-12-12T20:05:38.091Z,98832.09
2022-12-12T20:08:04.824Z,98828.69
2022-12-12T20:10:31.259Z,98831.19
2022-12-12T20:12:58.799Z,98828.69
2022-12-12T20:15:25.396Z,98826.06
2022-12-12T20:17:51.810Z,98832.09
2022-12-12T20:20:18.228Z,98825.34
2022-12-12T20:22:44.707Z,98827.69
2022-12-12T20:25:11.078Z,98829.91
2022-12-12T20:27:37.493Z,98824.63
2022-12-12T20:30:04.387Z,98812.81
2022-12-12T20:32:30.818Z,98821.69
2022-12-12T20:34:57.231Z,98819.44
2022-12-12T20:37:23.646Z,98825.41
2022-12-12T20:39:50.039Z,98822.72
2022-12-12T20:42:16.512Z,98814.03
2022-12-12T20:44:42.926Z,98817.41
2022-12-12T20:47:14.188Z,98812.09
2022-12-12T20:49:40.620Z,98810.19
2022-12-12T20:52:07.039Z,98809.56
2022-12-12T20:54:33.475Z,98809.88
2022-12-12T20:57:00.100Z,98816.25
2022-12-12T20:59:27.040Z,98817.59
2022-12-12T21:01:53.756Z,98810.81
2022-12-12T21:04:20.770Z,98807.22
2022-12-12T21:06:51.407Z,98803.09
2022-12-12T21:09:23.684Z,98802.81
2022-12-12T21:11:52.147Z,98807.50
2022-12-12T21:14:18.812Z,98810.19
2022-12-12T21:16:45.302Z,98814.31
2022-12-12T21:19:13.583Z,98810.63
2022-12-12T21:21:42.235Z,98814.44
2022-12-12T21:24:11.075Z,98809.59
2022-12-12T21:26:37.534Z,98810.53
2022-12-12T21:29:04.821Z,98809.59
2022-12-12T21:31:34.494Z,98804.28
2022-12-12T21:34:01.302Z,98802.66
2022-12-12T21:36:28.938Z,98799.56
2022-12-12T21:38:56.715Z,98803.56
2022-12-12T21:41:23.671Z,98800.16
2022-12-12T21:43:50.408Z,98797.53
2022-12-12T21:46:22.596Z,98798.81
2022-12-12T21:49:12.367Z,98802.53
2022-12-12T21:51:39.889Z,98792.19
2022-12-12T21:54:07.839Z,98797.22
2022-12-12T21:56:34.337Z,98799.44
2022-12-12T21:59:00.770Z,98797.22
2022-12-12T22:01:27.374Z,98801.66
2022-12-12T22:03:54.653Z,98792.34
2022-12-12T22:06:23.649Z,98783.38
2022-12-12T22:08:50.054Z,98785.88
2022-12-12T22:11:39.556Z,98789.63
2022-12-12T22:14:05.447Z,98786.22
2022-12-12T22:16:35.442Z,98782.84
2022-12-12T22:19:07.244Z,98781.53
2022-12-12T22:21:34.451Z,98774.00
2022-12-12T22:24:01.537Z,98778.97
2022-12-12T22:26:27.872Z,98776.81
2022-12-12T22:28:57.371Z,98773.69
2022-12-12T22:31:26.749Z,98765.59
2022-12-12T22:33:59.182Z,98778.28
2022-12-12T22:36:34.042Z,98778.69
2022-12-12T22:39:01.140Z,98781.94
2022-12-12T22:41:28.908Z,98783.28
2022-12-12T22:44:01.036Z,98778.38
2022-12-12T22:46:28.320Z,98775.75
2022-12-12T22:48:56.838Z,98782.41
2022-12-12T22:51:32.016Z,98778.44
2022-12-12T22:54:00.141Z,98776.81
2022-12-12T22:56:28.686Z,98768.38
2022-12-12T22:58:55.249Z,98770.16
2022-12-12T23:01:22.901Z,98767.53
2022-12-12T23:03:49.316Z,98759.41
2022-12-12T23:06:18.632Z,98757.47
2022-12-12T23:08:50.100Z,98756.56
2022-12-12T23:11:17.309Z,98744.22
2022-12-12T23:13:44.410Z,98738.59
2022-12-12T23:16:13.443Z,98743.59
2022-12-12T23:18:41.003Z,98742.31
2022-12-12T23:21:14.941Z,98745.69
2022-12-12T23:23:43.390Z,98741.75
2022-12-12T23:26:13.723Z,98738.97
2022-12-12T23:28:43.827Z,98731.00
2022-12-12T23:31:16.403Z,98730.72
2022-12-12T23:33:44.510Z,98729.50
2022-12-12T23:36:12.710Z,98731.44
2022-12-12T23:38:39.590Z,98724.91
2022-12-12T23:41:07.315Z,98725.06
2022-12-12T23:43:33.777Z,98724.75
2022-12-12T23:46:04.954Z,98724.31
2022-12-12T23:48:31.863Z,98722.09
2022-12-12T23:50:59.202Z,98720.19
2022-12-12T23:53:26.244Z,98722.56
2022-12-12T23:55:53.125Z,98720.63
2022-12-12T23:58:19.583Z,98711.22
